Time;durP1;ratioP1;P1;durP2;ratioP2;P2;SDS_P1;SDS_P2;PMS_P1;PMS_P2;Temp;Humidity;BMP_temperature;BMP_pressure;BME280_temperature;BME280_humidity;BME280_pressure;Samples;Min_cycle;Max_cycle;Signal;HPM_P1;HPM_P2
2022/08/16 00:02:11;;;;;;;4.97;4.47;;;;;;;24.59;44.29;98277.41;5108438;28;20048;-73
2022/08/16 00:04:38;;;;;;;4.28;3.75;;;;;;;24.64;44.13;98279.53;5108554;28;20052;-72
2022/08/16 00:07:06;;;;;;;3.92;3.13;;;;;;;24.51;44.19;98257.78;5108715;28;20310;-72
2022/08/16 00:09:34;;;;;;;5.45;3.50;;;;;;;24.62;44.40;98277.00;5108344;28;20052;-73
2022/08/16 00:12:02;;;;;;;4.50;3.55;;;;;;;24.60;44.27;98276.38;5108523;28;20097;-74
2022/08/16 00:14:31;;;;;;;4.60;3.75;;;;;;;24.61;44.45;98269.91;5108815;28;20101;-72
2022/08/16 00:16:59;;;;;;;3.30;2.83;;;;;;;24.57;44.24;98267.81;5108503;28;20120;-73
2022/08/16 00:19:32;;;;;;;3.72;3.03;;;;;;;24.50;43.88;98246.09;5108225;28;20319;-73
2022/08/16 00:22:00;;;;;;;5.43;2.87;;;;;;;24.52;44.30;98262.16;5108404;28;20059;-73
2022/08/16 00:24:29;;;;;;;3.60;3.03;;;;;;;24.56;44.15;98261.56;5108194;28;20458;-73
2022/08/16 00:26:57;;;;;;;3.33;2.70;;;;;;;24.60;43.89;98254.69;5108652;28;20055;-72
2022/08/16 00:29:25;;;;;;;3.60;2.60;;;;;;;24.53;44.16;98261.97;5107931;28;20060;-73
2022/08/16 00:31:53;;;;;;;6.93;3.10;;;;;;;24.55;43.83;98259.88;5108142;28;20117;-73
2022/08/16 00:34:22;;;;;;;4.07;3.30;;;;;;;24.24;43.36;98214.31;5108135;28;20052;-73
2022/08/16 00:36:50;;;;;;;5.78;3.20;;;;;;;24.56;43.50;98256.16;5108118;28;20051;-72
2022/08/16 00:39:19;;;;;;;3.88;3.10;;;;;;;24.57;43.68;98256.97;5108015;28;20052;-73
2022/08/16 00:41:50;;;;;;;4.63;3.13;;;;;;;24.58;43.74;98251.38;5108054;28;20358;-73
2022/08/16 00:44:21;;;;;;;4.05;3.35;;;;;;;24.42;44.11;98232.72;5090337;28;20051;-73
2022/08/16 00:46:54;;;;;;;4.95;3.33;;;;;;;24.48;44.22;98250.06;5107926;28;20097;-73
2022/08/16 00:49:22;;;;;;;4.10;3.60;;;;;;;24.46;44.36;98250.25;5107772;28;20052;-74
2022/08/16 00:51:51;;;;;;;4.50;3.63;;;;;;;24.34;44.76;98243.72;5107613;28;20119;-73
2022/08/16 00:54:18;;;;;;;5.00;3.38;;;;;;;24.47;44.60;98259.22;5107590;28;20056;-73
2022/08/16 00:56:49;;;;;;;4.90;3.70;;;;;;;24.43;44.82;98266.91;5107810;28;20056;-73
2022/08/16 00:59:18;;;;;;;5.07;4.40;;;;;;;24.54;44.75;98269.03;5107447;28;20052;-73
2022/08/16 01:01:47;;;;;;;13.35;9.38;;;;;;;24.25;44.79;98223.25;5107489;28;20286;-73
2022/08/16 01:04:20;;;;;;;27.55;20.65;;;;;;;24.47;44.37;98279.00;5107450;28;20097;-73
2022/08/16 01:06:47;;;;;;;46.72;32.67;;;;;;;24.57;44.67;98308.44;5107358;28;20052;-72
2022/08/16 01:09:14;;;;;;;49.72;33.97;;;;;;;24.50;44.84;98297.56;5107498;28;20056;-73
2022/08/16 01:11:42;;;;;;;19.73;14.32;;;;;;;24.44;45.20;98309.19;5108648;28;20227;-73
2022/08/16 01:14:15;;;;;;;15.10;9.43;;;;;;;24.44;45.59;98313.78;5107318;28;20056;-73
2022/08/16 01:16:43;;;;;;;8.65;6.47;;;;;;;24.32;46.09;98313.47;5107331;28;20105;-73
2022/08/16 01:19:21;;;;;;;9.40;4.80;;;;;;;24.01;47.11;98311.16;5107062;28;20101;-74
2022/08/16 01:21:54;;;;;;;17.98;11.18;;;;;;;23.93;47.16;98282.34;5106921;28;20056;-74
2022/08/16 01:24:27;;;;;;;12.00;6.78;;;;;;;23.85;48.29;98341.16;5107059;28;20123;-72
2022/08/16 01:27:00;;;;;;;10.47;5.53;;;;;;;23.71;48.64;98329.38;5107338;28;20181;-72
2022/08/16 01:29:34;;;;;;;6.60;4.28;;;;;;;23.69;48.84;98328.72;5106978;28;20504;-73
2022/08/16 01:32:02;;;;;;;4.72;3.55;;;;;;;23.61;48.74;98312.63;5107119;28;20093;-73
2022/08/16 01:34:30;;;;;;;6.07;3.63;;;;;;;23.65;48.52;98332.84;5106556;28;20048;-73
2022/08/16 01:37:00;;;;;;;7.25;3.70;;;;;;;23.53;48.53;98337.94;5106889;28;20116;-74
2022/08/16 01:39:30;;;;;;;4.07;3.22;;;;;;;23.21;48.46;98273.50;5106614;28;20052;-75
2022/08/16 01:41:57;;;;;;;5.97;3.38;;;;;;;23.46;48.58;98328.06;5106838;28;20043;-74
2022/08/16 01:44:24;;;;;;;5.38;3.30;;;;;;;23.42;48.84;98326.78;5106554;28;20052;-74
2022/08/16 01:46:55;;;;;;;4.28;2.90;;;;;;;23.26;49.48;98336.78;5106754;28;20036;-73
2022/08/16 01:49:25;;;;;;;5.68;3.35;;;;;;;23.25;49.07;98332.38;5106420;28;20109;-73
2022/08/16 01:51:57;;;;;;;3.67;2.70;;;;;;;23.21;49.41;98327.53;5106373;28;20106;-73
2022/08/16 01:54:24;;;;;;;10.85;3.58;;;;;;;23.10;49.69;98345.09;5106268;28;20113;-73
2022/08/16 01:56:53;;;;;;;7.45;3.05;;;;;;;23.24;49.01;98341.50;5106194;28;20209;-74
2022/08/16 01:59:22;;;;;;;6.97;3.42;;;;;;;23.16;49.26;98344.31;5106172;28;20109;-74
2022/08/16 02:01:51;;;;;;;4.30;2.97;;;;;;;23.09;49.03;98338.00;5106067;28;20270;-73
2022/08/16 02:04:19;;;;;;;7.30;2.88;;;;;;;22.97;49.87;98339.50;5106305;28;20066;-72
2022/08/16 02:06:46;;;;;;;3.42;2.70;;;;;;;22.58;49.40;98280.41;5106369;28;20097;-72
2022/08/16 02:09:15;;;;;;;3.53;2.70;;;;;;;22.91;49.88;98372.69;5106305;28;20097;-73
2022/08/16 02:11:44;;;;;;;4.00;2.95;;;;;;;22.78;50.34;98343.63;5105210;28;20064;-73
2022/08/16 02:14:13;;;;;;;4.72;3.08;;;;;;;22.46;50.08;98292.66;5106068;28;20048;-73
2022/08/16 02:16:43;;;;;;;5.70;3.00;;;;;;;22.78;50.18;98349.03;5106141;28;20361;-73
2022/08/16 02:19:10;;;;;;;4.28;2.97;;;;;;;22.76;49.93;98347.53;5106221;28;20366;-74
2022/08/16 02:21:38;;;;;;;4.88;3.15;;;;;;;22.76;49.92;98336.72;5106081;28;20316;-74
2022/08/16 02:24:06;;;;;;;5.35;3.50;;;;;;;22.81;49.79;98359.44;5105871;28;20125;-73
2022/08/16 02:26:33;;;;;;;3.95;3.05;;;;;;;22.80;50.08;98362.34;5105518;28;20056;-73
2022/08/16 02:29:00;;;;;;;4.70;3.17;;;;;;;22.71;50.11;98346.22;5105654;28;20052;-73
2022/08/16 02:31:29;;;;;;;3.45;2.65;;;;;;;22.72;49.99;98336.25;5105457;28;20056;-73
2022/08/16 02:33:56;;;;;;;4.72;2.85;;;;;;;22.67;50.07;98344.91;5105787;28;20105;-73
2022/08/16 02:36:23;;;;;;;3.47;2.53;;;;;;;22.72;50.01;98349.75;5105751;28;20258;-73
2022/08/16 02:38:50;;;;;;;4.20;2.63;;;;;;;22.73;49.80;98343.34;5105216;28;20059;-73
2022/08/16 02:41:18;;;;;;;3.15;2.78;;;;;;;22.64;50.06;98348.00;5105339;28;20056;-73
2022/08/16 02:43:45;;;;;;;4.68;3.08;;;;;;;22.63;49.87;98340.91;5105753;28;20051;-73
2022/08/16 02:46:13;;;;;;;6.10;2.90;;;;;;;22.64;49.81;98333.66;5105408;28;20117;-74
2022/08/16 02:48:41;;;;;;;4.65;2.45;;;;;;;22.27;49.85;98291.31;5105443;28;20056;-73
2022/08/16 02:51:10;;;;;;;5.10;3.00;;;;;;;22.43;50.01;98328.94;5087870;28;20052;-73
2022/08/16 02:53:39;;;;;;;4.88;3.30;;;;;;;22.41;50.03;98328.31;5105604;28;20102;-73
2022/08/16 02:56:08;;;;;;;3.45;2.63;;;;;;;22.36;50.03;98327.97;5105679;28;20062;-72
2022/08/16 02:58:35;;;;;;;5.60;3.30;;;;;;;22.26;50.04;98330.94;5105602;28;20059;-74
2022/08/16 03:01:02;;;;;;;4.05;2.85;;;;;;;22.16;50.58;98332.22;5105317;28;20064;-74
2022/08/16 03:03:30;;;;;;;4.18;2.53;;;;;;;22.17;50.30;98340.13;5105250;28;20341;-74
2022/08/16 03:05:58;;;;;;;3.88;2.75;;;;;;;22.14;50.70;98334.28;5105013;28;20056;-73
2022/08/16 03:08:26;;;;;;;3.40;2.67;;;;;;;22.06;50.75;98317.13;5105434;28;20052;-73
2022/08/16 16:17:18;;;;;;;4.50;2.58;;;;;;;28.43;33.83;98373.88;5165134;27;20824;-69
2022/08/16 16:19:46;;;;;;;3.97;2.83;;;;;;;28.47;34.91;98381.63;5143597;27;20215;-70
2022/08/16 16:22:13;;;;;;;3.38;2.38;;;;;;;28.51;34.85;98372.78;5142576;28;20055;-69
2022/08/16 16:24:43;;;;;;;4.35;2.92;;;;;;;28.57;34.50;98373.78;5143803;27;20303;-70
2022/08/16 16:27:10;;;;;;;3.17;2.40;;;;;;;28.64;34.44;98371.81;5143972;28;20040;-70
2022/08/16 16:29:38;;;;;;;5.25;4.47;;;;;;;28.56;33.74;98370.22;5143310;27;20338;-69
2022/08/16 16:32:06;;;;;;;6.78;5.25;;;;;;;28.45;33.88;98346.41;5143334;27;20062;-70
2022/08/16 16:34:35;;;;;;;4.40;3.50;;;;;;;28.74;34.42;98372.97;5143185;27;20051;-69
2022/08/16 16:37:02;;;;;;;3.50;2.58;;;;;;;28.80;34.15;98378.59;5143436;27;20047;-70
2022/08/16 16:39:30;;;;;;;4.55;2.70;;;;;;;28.80;33.66;98379.41;5143243;27;20059;-70
2022/08/16 16:41:58;;;;;;;3.50;2.67;;;;;;;28.82;34.18;98379.19;5143451;27;20063;-70
2022/08/16 16:44:25;;;;;;;3.75;2.67;;;;;;;28.65;33.77;98362.56;5142930;27;20058;-70
2022/08/16 16:46:53;;;;;;;4.80;2.38;;;;;;;28.87;34.20;98373.91;5142593;27;20066;-70
2022/08/16 16:49:23;;;;;;;3.80;2.85;;;;;;;28.76;33.57;98359.94;5142845;27;20055;-70
2022/08/16 16:51:51;;;;;;;5.13;2.63;;;;;;;28.88;34.22;98381.84;5142349;27;20062;-71
2022/08/16 16:54:19;;;;;;;3.83;2.70;;;;;;;28.90;34.65;98395.25;5142593;27;20066;-70
2022/08/16 16:56:47;;;;;;;4.75;3.13;;;;;;;28.89;34.06;98388.13;5142568;28;20050;-71
2022/08/16 16:59:13;;;;;;;5.07;3.75;;;;;;;28.89;34.63;98379.97;5142491;27;20051;-71
2022/08/16 17:01:43;;;;;;;4.15;3.28;;;;;;;28.91;34.75;98383.28;5142711;27;20051;-71
2022/08/16 17:04:13;;;;;;;4.88;3.00;;;;;;;28.89;34.49;98386.25;5142933;27;20059;-70
2022/08/16 17:06:42;;;;;;;3.17;2.78;;;;;;;28.87;34.72;98398.44;5142341;27;20055;-71
2022/08/16 17:09:11;;;;;;;6.05;2.75;;;;;;;28.37;34.86;98322.97;5142415;27;20066;-71
2022/08/16 17:11:42;;;;;;;3.20;2.33;;;;;;;28.44;34.76;98331.13;5142246;27;20246;-71
2022/08/16 17:14:12;;;;;;;8.95;2.92;;;;;;;28.85;35.05;98397.81;5142477;27;20063;-71
2022/08/16 17:16:40;;;;;;;8.00;2.63;;;;;;;28.74;35.26;98385.75;5142125;27;20066;-72
2022/08/16 17:19:08;;;;;;;3.38;2.40;;;;;;;28.74;35.29;98383.03;5142865;27;20207;-71
2022/08/16 17:21:38;;;;;;;3.35;2.67;;;;;;;28.71;35.30;98384.31;5142245;27;20051;-71
2022/08/16 17:24:06;;;;;;;3.70;2.85;;;;;;;28.54;35.04;98355.97;5142425;27;20192;-70
2022/08/16 17:26:36;;;;;;;4.32;2.83;;;;;;;28.77;34.60;98401.69;5140766;28;20256;-71
2022/08/16 17:29:04;;;;;;;6.95;3.25;;;;;;;28.76;35.29;98400.00;5128871;28;20074;-71
2022/08/16 17:31:32;;;;;;;4.15;2.63;;;;;;;28.72;35.23;98405.06;5128284;28;20227;-71
2022/08/16 17:33:59;;;;;;;4.75;2.65;;;;;;;28.72;34.76;98415.97;5128869;28;20062;-71
2022/08/16 17:36:27;;;;;;;4.10;3.03;;;;;;;28.69;34.74;98416.44;5128188;28;20051;-71
2022/08/16 17:38:54;;;;;;;3.85;2.45;;;;;;;28.67;34.99;98420.44;5128711;27;20302;-70
2022/08/16 17:41:22;;;;;;;3.90;2.75;;;;;;;28.53;34.43;98406.09;5128217;28;20295;-71
2022/08/16 17:43:51;;;;;;;4.63;2.83;;;;;;;28.62;34.56;98423.00;5128162;28;20303;-71
2022/08/16 17:46:20;;;;;;;4.45;2.42;;;;;;;28.61;35.08;98418.59;5128113;28;20143;-71
2022/08/16 17:48:49;;;;;;;3.47;3.00;;;;;;;28.58;34.71;98411.69;5128148;28;20063;-71
2022/08/16 17:51:17;;;;;;;17.13;4.03;;;;;;;28.54;34.19;98431.44;5127086;28;20280;-70
2022/08/16 17:53:44;;;;;;;3.60;2.70;;;;;;;28.54;34.30;98426.00;5127989;28;20051;-71
2022/08/16 17:56:11;;;;;;;4.55;2.85;;;;;;;28.24;34.73;98387.63;5127890;28;20047;-71
2022/08/16 17:58:39;;;;;;;6.85;2.70;;;;;;;28.49;35.29;98437.56;5127970;28;20052;-71
2022/08/16 18:01:08;;;;;;;3.60;2.90;;;;;;;28.48;35.34;98440.50;5128078;28;20055;-71
2022/08/16 18:03:39;;;;;;;4.90;2.55;;;;;;;28.41;35.23;98426.91;5127829;28;20055;-71
2022/08/16 18:06:09;;;;;;;4.50;3.08;;;;;;;28.43;34.97;98435.72;5127526;28;20051;-71
2022/08/16 18:08:38;;;;;;;3.33;2.60;;;;;;;28.29;34.63;98426.78;5127835;28;20055;-71
2022/08/16 18:11:06;;;;;;;3.78;2.72;;;;;;;28.36;34.45;98441.19;5127493;28;20063;-70
2022/08/16 18:13:34;;;;;;;4.10;2.75;;;;;;;28.36;34.89;98449.38;5127250;28;20242;-71
2022/08/16 18:16:03;;;;;;;4.88;2.80;;;;;;;28.34;35.40;98447.91;5127104;28;20059;-71
2022/08/16 18:18:31;;;;;;;6.63;2.75;;;;;;;28.31;35.23;98451.09;5127651;28;20051;-71
2022/08/16 18:23:44;;;;;;;3.90;2.55;;;;;;;28.22;34.72;98441.50;5127745;28;20145;-71
2022/08/16 18:26:11;;;;;;;5.80;2.70;;;;;;;28.20;34.87;98452.63;5127187;28;20051;-71
2022/08/16 18:28:40;;;;;;;5.28;2.90;;;;;;;28.19;34.90;98450.13;5127258;28;20066;-71
2022/08/16 18:31:08;;;;;;;3.95;2.60;;;;;;;28.17;34.72;98457.69;5127088;28;20078;-71
2022/08/16 18:33:37;;;;;;;6.05;3.05;;;;;;;28.03;34.86;98441.41;5127020;28;20062;-71
2022/08/16 18:36:05;;;;;;;4.63;3.40;;;;;;;27.98;34.62;98437.69;5127154;28;20059;-71
2022/08/16 18:38:33;;;;;;;8.90;3.42;;;;;;;27.88;34.82;98421.81;5126358;28;20063;-71
2022/08/16 18:41:03;;;;;;;4.85;2.72;;;;;;;28.07;35.07;98461.72;5126940;28;20070;-71
2022/08/16 18:43:31;;;;;;;6.75;3.42;;;;;;;28.03;34.87;98460.47;5127058;28;20058;-71
2022/08/16 18:45:58;;;;;;;6.80;3.22;;;;;;;28.01;34.75;98461.75;5127388;28;20055;-71
2022/08/16 18:48:26;;;;;;;4.65;2.65;;;;;;;28.01;35.14;98462.59;5127126;28;20059;-71
2022/08/16 18:50:57;;;;;;;3.63;2.67;;;;;;;27.88;34.99;98467.25;5127257;28;20062;-71
2022/08/16 18:53:27;;;;;;;4.15;2.88;;;;;;;27.97;35.24;98468.69;5123945;28;20059;-70
2022/08/16 18:55:58;;;;;;;3.50;2.63;;;;;;;27.97;35.18;98468.69;5105947;28;20051;-71
2022/08/16 18:58:26;;;;;;;4.07;2.60;;;;;;;27.91;34.84;98464.94;5106542;28;20243;-71
2022/08/16 19:00:53;;;;;;;3.88;2.70;;;;;;;27.82;35.02;98447.16;5106318;28;20055;-71
2022/08/16 19:03:23;;;;;;;3.67;2.55;;;;;;;27.87;35.00;98465.59;5106459;28;20036;-71
2022/08/16 19:05:55;;;;;;;4.00;2.95;;;;;;;27.73;35.06;98449.28;5106158;28;20056;-71
2022/08/16 19:08:23;;;;;;;3.92;2.97;;;;;;;27.81;34.99;98470.81;5106231;28;20242;-71
2022/08/16 19:10:54;;;;;;;4.28;2.50;;;;;;;27.47;35.26;98433.03;5106340;28;20036;-71
2022/08/16 19:13:23;;;;;;;3.90;2.78;;;;;;;27.66;35.14;98459.38;5106404;28;20105;-71
2022/08/16 19:15:53;;;;;;;5.10;3.00;;;;;;;27.64;35.47;98457.91;5105962;28;20059;-71
2022/08/16 19:18:21;;;;;;;4.57;2.72;;;;;;;27.70;35.44;98485.09;5106300;28;20056;-71
2022/08/16 19:20:50;;;;;;;3.25;2.50;;;;;;;27.70;35.60;98487.81;5106142;28;20234;-71
2022/08/16 19:23:21;;;;;;;3.47;2.75;;;;;;;27.67;35.76;98488.25;5106335;28;20128;-71
2022/08/16 19:25:53;;;;;;;4.68;2.60;;;;;;;27.63;35.62;98478.84;5106306;28;20109;-72
2022/08/16 19:28:22;;;;;;;4.38;3.40;;;;;;;27.62;35.98;98481.78;5105887;28;20052;-71
2022/08/16 19:30:50;;;;;;;3.00;2.40;;;;;;;27.56;36.17;98490.78;5106065;28;20063;-72
2022/08/16 19:33:17;;;;;;;4.28;2.50;;;;;;;27.46;35.89;98491.22;5106027;28;20262;-71
2022/08/16 19:35:44;;;;;;;3.40;2.88;;;;;;;27.49;36.24;98488.91;5106240;28;20373;-71
2022/08/16 19:38:12;;;;;;;4.40;2.88;;;;;;;27.45;36.24;98492.28;5105688;28;20334;-71
2022/08/16 19:40:39;;;;;;;5.95;2.88;;;;;;;27.36;36.31;98483.50;5105645;28;20064;-71
2022/08/16 19:43:10;;;;;;;4.90;3.00;;;;;;;27.39;36.47;98493.13;5105574;28;20254;-71
2022/08/16 19:45:38;;;;;;;4.47;2.72;;;;;;;27.24;36.36;98473.50;5106199;28;20060;-72
2022/08/16 19:48:06;;;;;;;3.78;2.45;;;;;;;27.37;36.52;98495.22;5104944;28;20337;-71
2022/08/16 19:50:34;;;;;;;4.88;3.28;;;;;;;27.31;36.55;98501.53;5105858;28;20039;-71
2022/08/16 19:53:04;;;;;;;4.57;2.60;;;;;;;27.10;36.82;98473.47;5105752;28;20246;-71
2022/08/16 19:55:34;;;;;;;4.78;2.85;;;;;;;27.23;36.90;98494.41;5105624;28;20304;-71
2022/08/16 19:58:02;;;;;;;3.60;2.40;;;;;;;27.24;37.00;98496.09;5105767;28;20052;-71
2022/08/16 20:00:32;;;;;;;3.95;2.20;;;;;;;27.19;36.57;98499.41;5105338;28;20052;-70
2022/08/16 20:02:59;;;;;;;3.42;2.38;;;;;;;27.16;37.09;98508.00;5105195;28;20052;-70
2022/08/16 20:05:30;;;;;;;3.67;2.72;;;;;;;27.07;36.93;98490.22;5105070;28;20059;-70
2022/08/16 20:08:02;;;;;;;4.30;3.28;;;;;;;26.63;37.08;98446.56;5105847;28;20094;-70
2022/08/16 20:10:29;;;;;;;5.00;3.03;;;;;;;27.09;36.95;98511.78;5105187;28;20052;-71
2022/08/16 20:12:58;;;;;;;4.03;2.95;;;;;;;26.97;36.65;98488.97;5105345;28;20060;-71
2022/08/16 20:15:28;;;;;;;4.75;3.13;;;;;;;27.09;36.99;98520.75;5105164;28;20056;-70
2022/08/16 20:17:57;;;;;;;5.00;3.95;;;;;;;27.08;37.08;98508.22;5104826;28;20266;-71
2022/08/16 20:20:27;;;;;;;5.22;2.75;;;;;;;27.07;36.70;98517.41;5105634;28;20052;-70
2022/08/16 20:22:54;;;;;;;4.35;2.88;;;;;;;27.01;36.92;98507.38;5105239;28;20113;-71
2022/08/16 20:25:24;;;;;;;5.50;3.05;;;;;;;27.01;36.88;98515.53;5105413;28;20058;-72
2022/08/16 20:27:52;;;;;;;4.50;3.80;;;;;;;26.99;36.96;98517.63;5105496;28;20250;-71
2022/08/16 20:30:19;;;;;;;4.53;3.60;;;;;;;26.99;37.18;98511.34;5105194;28;20255;-71
2022/08/16 20:32:47;;;;;;;3.60;2.88;;;;;;;26.65;36.86;98458.88;5105324;28;20105;-71
2022/08/16 20:35:18;;;;;;;4.20;2.83;;;;;;;27.00;37.12;98518.47;5104943;28;20052;-71
2022/08/16 20:37:46;;;;;;;3.80;3.10;;;;;;;26.95;37.09;98512.81;5105100;28;20063;-71
2022/08/16 20:40:16;;;;;;;5.45;3.17;;;;;;;26.84;36.97;98498.81;5105342;28;20052;-71
2022/08/16 20:42:44;;;;;;;4.35;2.67;;;;;;;26.94;36.97;98517.44;5105213;28;20056;-72
2022/08/16 20:45:12;;;;;;;3.00;2.58;;;;;;;26.70;37.37;98486.28;5105277;28;20055;-71
2022/08/16 20:47:39;;;;;;;3.17;2.70;;;;;;;26.92;37.02;98514.06;5105278;28;20056;-71
2022/08/16 20:50:07;;;;;;;5.20;3.17;;;;;;;26.75;36.98;98496.50;5104746;28;20082;-71
2022/08/16 20:52:36;;;;;;;7.30;3.28;;;;;;;26.88;37.09;98523.69;5104541;28;20055;-71
2022/08/16 20:55:04;;;;;;;3.95;2.90;;;;;;;26.85;37.26;98521.41;5104630;28;20055;-70
2022/08/16 20:57:31;;;;;;;3.00;2.22;;;;;;;26.89;37.24;98525.38;5105018;28;20097;-71
2022/08/16 20:59:59;;;;;;;4.05;2.63;;;;;;;26.81;37.21;98523.69;5104926;28;20258;-71
2022/08/16 21:02:27;;;;;;;4.03;2.58;;;;;;;26.82;37.25;98525.38;5106119;28;20361;-71
2022/08/16 21:04:54;;;;;;;4.35;2.30;;;;;;;26.76;37.25;98522.66;5108685;28;20132;-71
2022/08/16 21:07:22;;;;;;;3.58;2.83;;;;;;;26.71;37.38;98523.28;5108350;28;20060;-70
2022/08/16 21:09:50;;;;;;;4.20;3.10;;;;;;;26.41;37.22;98475.75;5108672;28;20097;-70
2022/08/16 21:12:18;;;;;;;4.13;3.38;;;;;;;26.67;37.43;98524.72;5108155;28;20106;-70
2022/08/16 21:14:45;;;;;;;3.70;2.85;;;;;;;26.68;37.57;98526.41;5108610;28;20056;-70
2022/08/16 21:17:14;;;;;;;4.63;2.80;;;;;;;26.64;37.28;98529.75;5108061;28;20068;-70
2022/08/16 21:19:44;;;;;;;2.63;2.08;;;;;;;26.62;37.37;98523.69;5108844;28;20064;-71
2022/08/16 21:22:15;;;;;;;5.05;3.17;;;;;;;26.49;37.52;98511.72;5108177;28;20051;-70
2022/08/16 21:24:43;;;;;;;6.03;4.88;;;;;;;26.46;37.58;98506.69;5108378;28;20056;-70
2022/08/16 21:27:11;;;;;;;5.22;3.40;;;;;;;26.61;37.52;98524.72;5108496;28;20059;-71
2022/08/16 21:29:39;;;;;;;5.05;4.40;;;;;;;26.59;37.43;98533.06;5108657;28;20055;-71
2022/08/16 21:32:09;;;;;;;15.23;13.60;;;;;;;26.58;37.56;98533.25;5107842;28;20384;-71
2022/08/16 21:34:37;;;;;;;9.02;7.88;;;;;;;26.57;37.40;98527.00;5107853;28;20109;-71
2022/08/16 21:37:04;;;;;;;5.25;4.25;;;;;;;26.54;37.62;98530.97;5107831;28;20059;-70
2022/08/16 21:39:31;;;;;;;5.35;4.70;;;;;;;26.52;37.61;98532.22;5107743;28;20250;-70
2022/08/16 21:41:59;;;;;;;5.38;4.22;;;;;;;26.48;37.70;98533.66;5108073;28;20260;-70
2022/08/16 21:44:27;;;;;;;6.55;5.85;;;;;;;26.49;37.63;98532.63;5107705;28;20172;-70
2022/08/16 21:46:55;;;;;;;10.20;7.28;;;;;;;26.49;37.86;98529.91;5107977;28;20308;-71
2022/08/16 21:49:22;;;;;;;9.07;7.35;;;;;;;26.49;37.91;98530.75;5107859;28;20047;-71
2022/08/16 21:51:49;;;;;;;7.50;6.70;;;;;;;26.48;38.09;98531.78;5107867;28;20312;-70
2022/08/16 21:54:16;;;;;;;7.88;7.07;;;;;;;26.31;38.00;98514.19;5107873;28;20353;-70
2022/08/16 21:56:44;;;;;;;8.43;5.90;;;;;;;26.45;37.93;98540.34;5108125;28;20058;-72
2022/08/16 21:59:11;;;;;;;5.78;5.00;;;;;;;26.42;37.96;98534.47;5107539;28;20055;-71
2022/08/16 22:01:41;;;;;;;6.47;5.22;;;;;;;26.20;38.25;98499.34;5107852;28;20055;-71
2022/08/16 22:04:12;;;;;;;6.55;5.20;;;;;;;26.32;38.15;98523.19;5107380;28;20105;-71
2022/08/16 22:06:41;;;;;;;5.70;4.20;;;;;;;26.38;38.35;98539.50;5108335;28;20056;-70
2022/08/16 22:09:11;;;;;;;4.88;3.80;;;;;;;26.40;38.33;98536.56;5107648;28;20059;-70
2022/08/16 22:11:38;;;;;;;4.55;3.65;;;;;;;26.39;38.58;98541.16;5107402;28;20098;-69
2022/08/16 22:14:06;;;;;;;4.32;3.05;;;;;;;26.40;37.95;98533.84;5107083;28;20056;-70
2022/08/16 22:16:36;;;;;;;3.40;2.65;;;;;;;26.34;38.22;98521.94;5106889;28;20250;-70
2022/08/16 22:19:05;;;;;;;3.50;2.78;;;;;;;26.36;37.85;98536.16;5106995;28;20044;-71
2022/08/16 22:21:33;;;;;;;4.82;3.10;;;;;;;26.32;38.14;98534.03;5107289;28;20086;-71
2022/08/16 22:24:01;;;;;;;4.80;3.05;;;;;;;26.32;38.70;98539.47;5107062;28;20060;-70
2022/08/16 22:26:30;;;;;;;3.42;2.90;;;;;;;26.29;38.54;98539.88;5105984;28;20040;-71
2022/08/16 22:28:57;;;;;;;6.88;6.18;;;;;;;26.29;38.46;98545.31;5107632;28;20138;-70
2022/08/16 22:31:26;;;;;;;7.88;7.05;;;;;;;26.29;38.51;98548.03;5107216;28;20056;-71
2022/08/16 22:33:55;;;;;;;11.35;8.63;;;;;;;26.28;38.46;98544.47;5107370;28;20052;-71
2022/08/16 22:36:25;;;;;;;6.88;5.55;;;;;;;26.29;38.75;98546.16;5107244;28;20064;-70
2022/08/16 22:38:52;;;;;;;5.38;3.50;;;;;;;26.23;38.71;98546.97;5107160;28;20102;-70
2022/08/16 22:41:19;;;;;;;7.68;6.57;;;;;;;26.22;38.57;98546.13;5107013;28;20109;-71
2022/08/16 22:43:46;;;;;;;10.13;8.75;;;;;;;26.26;38.66;98546.56;5107008;28;20056;-71
2022/08/16 22:46:13;;;;;;;13.00;10.07;;;;;;;26.27;39.03;98545.53;5106920;28;20205;-71
2022/08/16 22:48:41;;;;;;;5.60;4.97;;;;;;;26.23;38.69;98546.97;5106602;28;20059;-71
2022/08/16 22:51:08;;;;;;;3.97;3.40;;;;;;;26.21;38.86;98544.47;5106922;28;20056;-71
2022/08/16 22:53:37;;;;;;;4.28;3.33;;;;;;;26.02;38.73;98509.09;5106861;28;20250;-71
2022/08/16 22:56:04;;;;;;;3.80;2.88;;;;;;;26.19;39.01;98541.13;5106473;28;20048;-71
2022/08/16 22:58:32;;;;;;;3.50;2.70;;;;;;;26.19;38.89;98532.97;5106612;28;20109;-71
2022/08/16 23:00:59;;;;;;;3.55;2.50;;;;;;;26.20;38.77;98537.34;5106306;28;20060;-71
2022/08/16 23:03:26;;;;;;;5.68;3.75;;;;;;;26.10;38.78;98526.03;5105636;28;20258;-71
2022/08/16 23:05:56;;;;;;;3.70;2.85;;;;;;;26.15;38.80;98528.97;5106711;28;20063;-71
2022/08/16 23:08:26;;;;;;;11.65;9.88;;;;;;;26.18;39.08;98530.44;5106754;28;20052;-71
2022/08/16 23:10:55;;;;;;;7.80;5.70;;;;;;;26.19;38.93;98532.13;5106767;28;20187;-72
2022/08/16 23:13:26;;;;;;;7.65;5.60;;;;;;;26.17;39.11;98537.75;5106644;28;20063;-71
2022/08/16 23:15:57;;;;;;;8.43;6.63;;;;;;;26.13;39.35;98522.09;5106038;28;20385;-70
2022/08/16 23:18:25;;;;;;;13.45;10.82;;;;;;;26.02;39.13;98519.97;5105972;28;20319;-71
2022/08/16 23:20:54;;;;;;;9.55;7.78;;;;;;;26.10;39.01;98530.63;5106162;28;20097;-74
2022/08/16 23:23:24;;;;;;;9.55;7.07;;;;;;;26.08;39.26;98530.00;5106257;28;20063;-71
2022/08/16 23:25:54;;;;;;;7.60;6.57;;;;;;;26.09;39.56;98532.50;5105893;28;20113;-71
2022/08/16 23:28:24;;;;;;;4.90;3.60;;;;;;;26.04;38.97;98526.03;5106168;28;20052;-71
2022/08/16 23:30:52;;;;;;;4.78;3.25;;;;;;;25.63;39.07;98461.72;5106439;28;20320;-71
2022/08/16 23:33:20;;;;;;;9.65;6.28;;;;;;;26.07;39.41;98525.63;5105687;28;20052;-71
2022/08/16 23:35:50;;;;;;;7.43;4.43;;;;;;;25.69;39.35;98463.63;5105743;28;20060;-71
2022/08/16 23:38:20;;;;;;;3.67;3.10;;;;;;;26.05;39.15;98524.97;5105830;28;20132;-72
2022/08/16 23:40:48;;;;;;;7.57;3.65;;;;;;;26.03;39.28;98529.78;5106251;28;20101;-71
2022/08/16 23:43:18;;;;;;;5.90;5.10;;;;;;;26.02;39.39;98530.81;5105845;28;20056;-70
2022/08/16 23:45:48;;;;;;;5.82;3.80;;;;;;;26.05;39.42;98525.81;5105744;28;20060;-70
2022/08/16 23:48:18;;;;;;;4.63;3.78;;;;;;;26.04;39.40;98523.31;5105828;28;20185;-72
2022/08/16 23:50:48;;;;;;;5.03;3.75;;;;;;;26.01;39.56;98529.97;5105734;28;20234;-70
2022/08/16 23:53:19;;;;;;;3.92;3.10;;;;;;;26.01;39.09;98534.56;5105564;28;20056;-71
2022/08/16 23:55:48;;;;;;;3.60;2.55;;;;;;;25.97;39.40;98530.56;5105887;28;20052;-71
2022/08/16 23:58:20;;;;;;;5.32;3.97;;;;;;;26.00;39.74;98530.19;5105631;28;20064;-71
